In Rescue
 
Open Full Screen Window  High Contrast Mode
Wind Gusting 00 knots
06
July 24, 2024 5:12 PM CDT
Weather Information
Wind Direction
  100 °
Wind Speed
  06 kt (7 mph)
Wind Gust
  00 kt (0 mph)
Altimeter
30.24 in
Visibility
10 SM
Temperature
23° C
73° F
Dewpoint
10° C
50° F
Humidity
44%
1hr Rain Fall
00.00 in.
24hr Rain Fall
00.11 in.
Sky Condition
Broken @ 5,000 ft
VFR

METAR KJMR 242212Z AUTO 10006KT 10SM BKN050 23/10 A3024 RMK AO2

FAA Disclaimer: The data displayed is for advisory purposes only and is not to be used for flight planning or operations.